sensor_id;sensor_type;location;lat;lon;timestamp;temperature;humidity
17659;DHT22;8948;51.534;8.262;2023-05-29T00:04:43;16.50;58.00
17659;DHT22;8948;51.534;8.262;2023-05-29T00:09:43;16.30;58.10
17659;DHT22;8948;51.534;8.262;2023-05-29T00:14:44;16.20;58.30
17659;DHT22;8948;51.534;8.262;2023-05-29T00:19:44;16.10;58.30
17659;DHT22;8948;51.534;8.262;2023-05-29T00:24:45;16.00;58.50
17659;DHT22;8948;51.534;8.262;2023-05-29T00:29:46;15.80;58.40
17659;DHT22;8948;51.534;8.262;2023-05-29T00:34:47;15.70;58.80
17659;DHT22;8948;51.534;8.262;2023-05-29T00:39:48;15.60;58.90
17659;DHT22;8948;51.534;8.262;2023-05-29T00:44:49;15.50;59.20
17659;DHT22;8948;51.534;8.262;2023-05-29T00:49:50;15.40;59.40
17659;DHT22;8948;51.534;8.262;2023-05-29T00:54:52;15.30;59.80
17659;DHT22;8948;51.534;8.262;2023-05-29T00:59:54;15.30;59.80
17659;DHT22;8948;51.534;8.262;2023-05-29T01:04:56;15.30;59.70
17659;DHT22;8948;51.534;8.262;2023-05-29T01:09:57;15.20;59.60
17659;DHT22;8948;51.534;8.262;2023-05-29T01:15:28;15.10;59.90
17659;DHT22;8948;51.534;8.262;2023-05-29T01:20:53;15.10;60.50
17659;DHT22;8948;51.534;8.262;2023-05-29T01:31:09;15.00;60.00
17659;DHT22;8948;51.534;8.262;2023-05-29T01:36:11;14.90;60.40
17659;DHT22;8948;51.534;8.262;2023-05-29T01:41:12;14.70;60.90
17659;DHT22;8948;51.534;8.262;2023-05-29T01:46:14;14.70;60.50
17659;DHT22;8948;51.534;8.262;2023-05-29T01:51:15;14.60;61.10
17659;DHT22;8948;51.534;8.262;2023-05-29T01:56:16;14.50;61.20
17659;DHT22;8948;51.534;8.262;2023-05-29T02:01:16;14.50;61.70
17659;DHT22;8948;51.534;8.262;2023-05-29T02:06:17;14.50;62.10
17659;DHT22;8948;51.534;8.262;2023-05-29T02:11:18;14.50;62.10
17659;DHT22;8948;51.534;8.262;2023-05-29T02:16:19;14.50;62.30
17659;DHT22;8948;51.534;8.262;2023-05-29T02:21:20;14.30;62.60
17659;DHT22;8948;51.534;8.262;2023-05-29T02:26:21;14.30;62.40
17659;DHT22;8948;51.534;8.262;2023-05-29T02:31:21;14.20;62.20
17659;DHT22;8948;51.534;8.262;2023-05-29T02:36:22;14.10;62.20
17659;DHT22;8948;51.534;8.262;2023-05-29T02:41:22;14.00;62.10
17659;DHT22;8948;51.534;8.262;2023-05-29T02:46:23;13.90;62.30
17659;DHT22;8948;51.534;8.262;2023-05-29T02:51:24;13.80;62.50
17659;DHT22;8948;51.534;8.262;2023-05-29T02:56:24;13.80;62.10
17659;DHT22;8948;51.534;8.262;2023-05-29T03:01:25;13.70;61.90
17659;DHT22;8948;51.534;8.262;2023-05-29T03:06:25;13.70;62.10
17659;DHT22;8948;51.534;8.262;2023-05-29T03:11:26;13.60;62.20
17659;DHT22;8948;51.534;8.262;2023-05-29T03:16:26;13.50;62.40
17659;DHT22;8948;51.534;8.262;2023-05-29T03:21:29;13.40;62.40
17659;DHT22;8948;51.534;8.262;2023-05-29T03:26:31;13.40;62.30
17659;DHT22;8948;51.534;8.262;2023-05-29T03:31:32;13.30;62.40
17659;DHT22;8948;51.534;8.262;2023-05-29T03:36:32;13.20;62.40
17659;DHT22;8948;51.534;8.262;2023-05-29T03:41:33;13.10;62.50
17659;DHT22;8948;51.534;8.262;2023-05-29T03:46:34;13.00;62.50
17659;DHT22;8948;51.534;8.262;2023-05-29T03:51:34;13.00;62.50
17659;DHT22;8948;51.534;8.262;2023-05-29T03:56:35;12.90;62.70
17659;DHT22;8948;51.534;8.262;2023-05-29T04:01:36;12.90;62.90
17659;DHT22;8948;51.534;8.262;2023-05-29T04:06:37;12.90;62.90
17659;DHT22;8948;51.534;8.262;2023-05-29T04:11:38;12.90;62.60
17659;DHT22;8948;51.534;8.262;2023-05-29T04:16:39;12.90;62.90
17659;DHT22;8948;51.534;8.262;2023-05-29T04:21:40;13.00;63.10
17659;DHT22;8948;51.534;8.262;2023-05-29T04:26:41;13.00;63.10
17659;DHT22;8948;51.534;8.262;2023-05-29T04:31:42;13.00;63.60
17659;DHT22;8948;51.534;8.262;2023-05-29T04:36:44;13.10;63.60
17659;DHT22;8948;51.534;8.262;2023-05-29T04:41:45;13.10;63.40
17659;DHT22;8948;51.534;8.262;2023-05-29T04:46:45;13.20;63.40
17659;DHT22;8948;51.534;8.262;2023-05-29T04:51:47;13.40;63.70
17659;DHT22;8948;51.534;8.262;2023-05-29T04:56:47;13.60;64.00
17659;DHT22;8948;51.534;8.262;2023-05-29T05:01:48;13.70;65.60
17659;DHT22;8948;51.534;8.262;2023-05-29T05:06:50;14.00;64.40
17659;DHT22;8948;51.534;8.262;2023-05-29T05:11:51;14.20;62.30
17659;DHT22;8948;51.534;8.262;2023-05-29T05:16:52;14.10;62.10
17659;DHT22;8948;51.534;8.262;2023-05-29T05:21:52;14.00;62.00
17659;DHT22;8948;51.534;8.262;2023-05-29T05:26:53;13.90;61.80
17659;DHT22;8948;51.534;8.262;2023-05-29T05:31:53;13.70;62.70
17659;DHT22;8948;51.534;8.262;2023-05-29T05:36:54;13.50;63.20
17659;DHT22;8948;51.534;8.262;2023-05-29T05:41:55;13.60;63.10
17659;DHT22;8948;51.534;8.262;2023-05-29T05:46:55;13.70;62.50
17659;DHT22;8948;51.534;8.262;2023-05-29T05:51:56;13.80;62.10
17659;DHT22;8948;51.534;8.262;2023-05-29T05:56:56;14.00;61.80
17659;DHT22;8948;51.534;8.262;2023-05-29T06:01:57;14.00;61.90
17659;DHT22;8948;51.534;8.262;2023-05-29T06:06:58;14.20;61.00
17659;DHT22;8948;51.534;8.262;2023-05-29T06:11:58;14.10;61.40
17659;DHT22;8948;51.534;8.262;2023-05-29T06:17:00;13.90;61.80
17659;DHT22;8948;51.534;8.262;2023-05-29T06:22:00;14.10;61.50
17659;DHT22;8948;51.534;8.262;2023-05-29T06:27:01;14.30;60.90
17659;DHT22;8948;51.534;8.262;2023-05-29T06:32:02;14.60;60.60
17659;DHT22;8948;51.534;8.262;2023-05-29T06:37:02;14.70;60.80
17659;DHT22;8948;51.534;8.262;2023-05-29T06:42:03;14.80;60.70
17659;DHT22;8948;51.534;8.262;2023-05-29T06:47:05;15.00;59.70
17659;DHT22;8948;51.534;8.262;2023-05-29T06:52:06;15.10;60.00
17659;DHT22;8948;51.534;8.262;2023-05-29T06:57:06;15.00;59.40
17659;DHT22;8948;51.534;8.262;2023-05-29T07:02:07;15.30;59.80
17659;DHT22;8948;51.534;8.262;2023-05-29T07:07:07;15.40;59.70
17659;DHT22;8948;51.534;8.262;2023-05-29T07:12:08;15.50;58.90
17659;DHT22;8948;51.534;8.262;2023-05-29T07:17:08;15.70;59.70
17659;DHT22;8948;51.534;8.262;2023-05-29T07:22:09;15.80;58.90
17659;DHT22;8948;51.534;8.262;2023-05-29T07:27:10;16.00;60.50
17659;DHT22;8948;51.534;8.262;2023-05-29T07:32:11;16.30;58.90
17659;DHT22;8948;51.534;8.262;2023-05-29T07:37:11;16.40;57.40
17659;DHT22;8948;51.534;8.262;2023-05-29T07:42:13;16.70;59.00
17659;DHT22;8948;51.534;8.262;2023-05-29T07:47:14;16.80;58.00
17659;DHT22;8948;51.534;8.262;2023-05-29T07:52:14;16.30;58.70
17659;DHT22;8948;51.534;8.262;2023-05-29T07:57:15;16.30;59.20
17659;DHT22;8948;51.534;8.262;2023-05-29T08:02:16;16.80;58.00
17659;DHT22;8948;51.534;8.262;2023-05-29T08:07:17;16.70;56.70
17659;DHT22;8948;51.534;8.262;2023-05-29T08:12:17;17.00;58.40
17659;DHT22;8948;51.534;8.262;2023-05-29T08:17:18;17.40;55.70
17659;DHT22;8948;51.534;8.262;2023-05-29T08:22:19;17.80;56.60
17659;DHT22;8948;51.534;8.262;2023-05-29T08:27:19;17.70;54.90
17659;DHT22;8948;51.534;8.262;2023-05-29T08:32:20;17.80;56.80
17659;DHT22;8948;51.534;8.262;2023-05-29T08:37:21;18.00;54.90
17659;DHT22;8948;51.534;8.262;2023-05-29T08:42:29;18.00;55.70
17659;DHT22;8948;51.534;8.262;2023-05-29T08:47:33;18.30;54.40
17659;DHT22;8948;51.534;8.262;2023-05-29T08:52:34;18.50;55.90
17659;DHT22;8948;51.534;8.262;2023-05-29T08:57:38;18.70;53.20
17659;DHT22;8948;51.534;8.262;2023-05-29T09:02:40;18.80;53.10
17659;DHT22;8948;51.534;8.262;2023-05-29T09:07:41;19.00;53.20
17659;DHT22;8948;51.534;8.262;2023-05-29T09:12:41;19.00;54.90
17659;DHT22;8948;51.534;8.262;2023-05-29T09:17:42;19.00;52.00
17659;DHT22;8948;51.534;8.262;2023-05-29T09:22:52;18.80;52.60
17659;DHT22;8948;51.534;8.262;2023-05-29T09:27:58;19.10;54.50
17659;DHT22;8948;51.534;8.262;2023-05-29T09:33:00;19.30;53.10
17659;DHT22;8948;51.534;8.262;2023-05-29T09:38:04;19.50;52.20
17659;DHT22;8948;51.534;8.262;2023-05-29T09:43:18;19.60;51.80
17659;DHT22;8948;51.534;8.262;2023-05-29T09:48:23;19.90;50.30
17659;DHT22;8948;51.534;8.262;2023-05-29T09:53:25;19.90;51.80
17659;DHT22;8948;51.534;8.262;2023-05-29T09:58:25;20.00;50.80
17659;DHT22;8948;51.534;8.262;2023-05-29T10:03:26;20.40;53.80
17659;DHT22;8948;51.534;8.262;2023-05-29T10:08:30;20.80;50.90
17659;DHT22;8948;51.534;8.262;2023-05-29T10:13:36;20.90;49.90
17659;DHT22;8948;51.534;8.262;2023-05-29T10:18:39;21.00;49.20
17659;DHT22;8948;51.534;8.262;2023-05-29T10:23:47;21.20;52.00
17659;DHT22;8948;51.534;8.262;2023-05-29T10:29:11;21.30;48.40
17659;DHT22;8948;51.534;8.262;2023-05-29T10:34:23;21.60;48.80
17659;DHT22;8948;51.534;8.262;2023-05-29T10:39:25;21.80;48.40
17659;DHT22;8948;51.534;8.262;2023-05-29T10:49:33;21.60;47.40
17659;DHT22;8948;51.534;8.262;2023-05-29T10:54:50;21.40;48.30
17659;DHT22;8948;51.534;8.262;2023-05-29T11:00:07;21.80;47.10
17659;DHT22;8948;51.534;8.262;2023-05-29T11:05:23;22.20;46.90
17659;DHT22;8948;51.534;8.262;2023-05-29T11:10:42;22.30;46.70
17659;DHT22;8948;51.534;8.262;2023-05-29T11:15:46;22.40;45.90
17659;DHT22;8948;51.534;8.262;2023-05-29T11:20:53;22.40;46.80
17659;DHT22;8948;51.534;8.262;2023-05-29T11:25:58;22.60;47.20
17659;DHT22;8948;51.534;8.262;2023-05-29T11:30:59;22.70;46.00
17659;DHT22;8948;51.534;8.262;2023-05-29T11:36:05;22.60;48.00
17659;DHT22;8948;51.534;8.262;2023-05-29T11:41:09;22.90;45.40
17659;DHT22;8948;51.534;8.262;2023-05-29T11:46:19;22.70;45.90
17659;DHT22;8948;51.534;8.262;2023-05-29T11:51:20;23.10;45.40
17659;DHT22;8948;51.534;8.262;2023-05-29T11:56:21;23.10;45.00
17659;DHT22;8948;51.534;8.262;2023-05-29T12:01:21;23.10;44.20
17659;DHT22;8948;51.534;8.262;2023-05-29T12:06:34;23.30;44.50
17659;DHT22;8948;51.534;8.262;2023-05-29T12:11:36;23.60;44.20
17659;DHT22;8948;51.534;8.262;2023-05-29T12:16:36;23.60;45.10
17659;DHT22;8948;51.534;8.262;2023-05-29T12:21:41;23.60;43.10
17659;DHT22;8948;51.534;8.262;2023-05-29T12:26:43;23.60;44.50
17659;DHT22;8948;51.534;8.262;2023-05-29T12:31:44;23.60;45.00
17659;DHT22;8948;51.534;8.262;2023-05-29T12:36:44;24.10;44.70
17659;DHT22;8948;51.534;8.262;2023-05-29T12:41:45;24.40;44.10
17659;DHT22;8948;51.534;8.262;2023-05-29T12:46:45;24.50;43.20
17659;DHT22;8948;51.534;8.262;2023-05-29T12:51:46;24.50;45.10
17659;DHT22;8948;51.534;8.262;2023-05-29T12:56:47;24.30;42.70
17659;DHT22;8948;51.534;8.262;2023-05-29T13:01:50;24.30;43.80
17659;DHT22;8948;51.534;8.262;2023-05-29T13:06:52;24.40;45.00
17659;DHT22;8948;51.534;8.262;2023-05-29T13:11:53;24.60;43.40
17659;DHT22;8948;51.534;8.262;2023-05-29T13:16:53;24.40;41.40
17659;DHT22;8948;51.534;8.262;2023-05-29T13:21:54;24.50;42.70
17659;DHT22;8948;51.534;8.262;2023-05-29T13:26:54;24.90;43.20
17659;DHT22;8948;51.534;8.262;2023-05-29T13:31:55;25.00;42.10
17659;DHT22;8948;51.534;8.262;2023-05-29T13:36:56;25.20;41.10
17659;DHT22;8948;51.534;8.262;2023-05-29T13:41:56;25.30;42.10
17659;DHT22;8948;51.534;8.262;2023-05-29T13:46:57;25.40;42.50
17659;DHT22;8948;51.534;8.262;2023-05-29T13:51:57;25.60;41.70
17659;DHT22;8948;51.534;8.262;2023-05-29T13:56:58;25.30;40.20
17659;DHT22;8948;51.534;8.262;2023-05-29T14:01:58;25.20;41.20
17659;DHT22;8948;51.534;8.262;2023-05-29T14:06:59;25.30;41.40
17659;DHT22;8948;51.534;8.262;2023-05-29T14:12:00;25.20;40.40
17659;DHT22;8948;51.534;8.262;2023-05-29T14:17:02;25.30;42.00
17659;DHT22;8948;51.534;8.262;2023-05-29T14:22:05;25.40;40.00
17659;DHT22;8948;51.534;8.262;2023-05-29T14:27:06;25.20;40.10
17659;DHT22;8948;51.534;8.262;2023-05-29T14:32:07;25.40;39.90
17659;DHT22;8948;51.534;8.262;2023-05-29T14:37:07;25.60;38.10
17659;DHT22;8948;51.534;8.262;2023-05-29T14:42:08;25.30;39.20
17659;DHT22;8948;51.534;8.262;2023-05-29T14:47:09;25.40;39.50
17659;DHT22;8948;51.534;8.262;2023-05-29T14:52:10;25.30;41.10
17659;DHT22;8948;51.534;8.262;2023-05-29T14:57:11;25.30;40.60
17659;DHT22;8948;51.534;8.262;2023-05-29T15:02:11;25.30;41.30
17659;DHT22;8948;51.534;8.262;2023-05-29T15:07:12;25.00;40.10
17659;DHT22;8948;51.534;8.262;2023-05-29T15:12:13;24.90;40.80
17659;DHT22;8948;51.534;8.262;2023-05-29T15:17:13;24.70;40.00
17659;DHT22;8948;51.534;8.262;2023-05-29T15:22:14;24.90;39.40
17659;DHT22;8948;51.534;8.262;2023-05-29T15:27:15;24.90;40.60
17659;DHT22;8948;51.534;8.262;2023-05-29T15:32:15;24.80;40.60
17659;DHT22;8948;51.534;8.262;2023-05-29T15:37:16;24.60;40.70
17659;DHT22;8948;51.534;8.262;2023-05-29T15:42:16;24.70;39.90
17659;DHT22;8948;51.534;8.262;2023-05-29T15:47:17;24.70;39.90
17659;DHT22;8948;51.534;8.262;2023-05-29T15:52:17;24.70;40.90
17659;DHT22;8948;51.534;8.262;2023-05-29T15:57:18;24.70;39.60
17659;DHT22;8948;51.534;8.262;2023-05-29T16:02:19;24.60;39.90
17659;DHT22;8948;51.534;8.262;2023-05-29T16:07:19;24.20;39.80
17659;DHT22;8948;51.534;8.262;2023-05-29T16:12:20;24.00;40.90
17659;DHT22;8948;51.534;8.262;2023-05-29T16:17:21;23.70;40.20
17659;DHT22;8948;51.534;8.262;2023-05-29T16:22:22;23.70;41.30
17659;DHT22;8948;51.534;8.262;2023-05-29T16:27:23;23.50;40.20
17659;DHT22;8948;51.534;8.262;2023-05-29T16:32:24;23.40;41.00
17659;DHT22;8948;51.534;8.262;2023-05-29T16:37:26;23.40;40.20
17659;DHT22;8948;51.534;8.262;2023-05-29T16:42:26;23.30;40.60
17659;DHT22;8948;51.534;8.262;2023-05-29T16:47:27;23.00;40.30
17659;DHT22;8948;51.534;8.262;2023-05-29T16:52:28;22.60;41.00
17659;DHT22;8948;51.534;8.262;2023-05-29T16:57:28;22.50;41.30
17659;DHT22;8948;51.534;8.262;2023-05-29T17:02:29;22.40;40.60
17659;DHT22;8948;51.534;8.262;2023-05-29T17:07:30;22.20;39.80
17659;DHT22;8948;51.534;8.262;2023-05-29T17:12:30;22.00;39.60
17659;DHT22;8948;51.534;8.262;2023-05-29T17:17:31;22.10;39.60
17659;DHT22;8948;51.534;8.262;2023-05-29T17:22:31;22.20;39.10
17659;DHT22;8948;51.534;8.262;2023-05-29T17:27:32;22.20;37.90
17659;DHT22;8948;51.534;8.262;2023-05-29T17:32:32;22.10;37.50
17659;DHT22;8948;51.534;8.262;2023-05-29T17:37:33;21.90;38.00
17659;DHT22;8948;51.534;8.262;2023-05-29T17:42:33;21.90;37.30
17659;DHT22;8948;51.534;8.262;2023-05-29T17:47:34;21.80;37.30
17659;DHT22;8948;51.534;8.262;2023-05-29T17:52:35;21.80;38.30
17659;DHT22;8948;51.534;8.262;2023-05-29T17:57:35;21.70;38.70
17659;DHT22;8948;51.534;8.262;2023-05-29T18:02:36;21.60;39.10
17659;DHT22;8948;51.534;8.262;2023-05-29T18:07:36;21.40;39.60
17659;DHT22;8948;51.534;8.262;2023-05-29T18:12:38;21.10;40.30
17659;DHT22;8948;51.534;8.262;2023-05-29T18:17:39;20.90;40.40
17659;DHT22;8948;51.534;8.262;2023-05-29T18:22:40;20.60;40.80
17659;DHT22;8948;51.534;8.262;2023-05-29T18:27:40;20.50;41.30
17659;DHT22;8948;51.534;8.262;2023-05-29T18:32:41;20.30;41.80
17659;DHT22;8948;51.534;8.262;2023-05-29T18:37:41;20.20;42.60
17659;DHT22;8948;51.534;8.262;2023-05-29T18:42:42;20.10;42.60
17659;DHT22;8948;51.534;8.262;2023-05-29T18:47:42;19.80;42.70
17659;DHT22;8948;51.534;8.262;2023-05-29T18:52:43;19.60;42.50
17659;DHT22;8948;51.534;8.262;2023-05-29T18:57:43;19.20;42.80
17659;DHT22;8948;51.534;8.262;2023-05-29T19:02:51;19.00;43.00
17659;DHT22;8948;51.534;8.262;2023-05-29T19:07:54;18.90;43.20
17659;DHT22;8948;51.534;8.262;2023-05-29T19:12:54;18.70;43.70
17659;DHT22;8948;51.534;8.262;2023-05-29T19:17:56;18.70;43.90
17659;DHT22;8948;51.534;8.262;2023-05-29T19:22:57;18.70;43.90
17659;DHT22;8948;51.534;8.262;2023-05-29T19:27:57;18.60;43.90
17659;DHT22;8948;51.534;8.262;2023-05-29T19:32:58;18.40;44.80
17659;DHT22;8948;51.534;8.262;2023-05-29T19:37:58;18.50;45.40
17659;DHT22;8948;51.534;8.262;2023-05-29T19:42:59;18.40;45.20
17659;DHT22;8948;51.534;8.262;2023-05-29T19:48:00;18.10;45.70
17659;DHT22;8948;51.534;8.262;2023-05-29T19:53:00;18.20;45.80
17659;DHT22;8948;51.534;8.262;2023-05-29T19:58:03;18.10;45.90
17659;DHT22;8948;51.534;8.262;2023-05-29T20:03:05;18.20;46.20
17659;DHT22;8948;51.534;8.262;2023-05-29T20:08:06;18.00;45.80
17659;DHT22;8948;51.534;8.262;2023-05-29T20:13:07;17.90;46.50
17659;DHT22;8948;51.534;8.262;2023-05-29T20:18:08;17.80;46.70
17659;DHT22;8948;51.534;8.262;2023-05-29T20:23:08;17.80;47.00
17659;DHT22;8948;51.534;8.262;2023-05-29T20:28:09;17.70;47.40
17659;DHT22;8948;51.534;8.262;2023-05-29T20:33:10;17.60;47.40
17659;DHT22;8948;51.534;8.262;2023-05-29T20:38:11;17.60;47.60
17659;DHT22;8948;51.534;8.262;2023-05-29T20:43:14;17.50;47.60
17659;DHT22;8948;51.534;8.262;2023-05-29T20:48:14;17.40;48.00
17659;DHT22;8948;51.534;8.262;2023-05-29T20:53:15;17.30;48.00
17659;DHT22;8948;51.534;8.262;2023-05-29T20:58:16;17.20;48.00
17659;DHT22;8948;51.534;8.262;2023-05-29T21:03:16;17.00;48.30
17659;DHT22;8948;51.534;8.262;2023-05-29T21:08:18;16.50;48.80
17659;DHT22;8948;51.534;8.262;2023-05-29T21:13:18;16.60;48.40
17659;DHT22;8948;51.534;8.262;2023-05-29T21:18:19;16.50;48.40
17659;DHT22;8948;51.534;8.262;2023-05-29T21:23:20;16.40;48.50
17659;DHT22;8948;51.534;8.262;2023-05-29T21:28:20;16.40;48.40
17659;DHT22;8948;51.534;8.262;2023-05-29T21:33:21;16.30;48.50
17659;DHT22;8948;51.534;8.262;2023-05-29T21:38:25;16.20;49.00
17659;DHT22;8948;51.534;8.262;2023-05-29T21:43:26;16.00;49.10
17659;DHT22;8948;51.534;8.262;2023-05-29T21:48:27;15.80;49.60
17659;DHT22;8948;51.534;8.262;2023-05-29T21:53:27;15.90;49.60
17659;DHT22;8948;51.534;8.262;2023-05-29T21:58:28;15.90;49.70
17659;DHT22;8948;51.534;8.262;2023-05-29T22:03:28;15.90;49.40
17659;DHT22;8948;51.534;8.262;2023-05-29T22:08:40;15.80;50.20
17659;DHT22;8948;51.534;8.262;2023-05-29T22:13:41;15.50;51.30
17659;DHT22;8948;51.534;8.262;2023-05-29T22:18:42;15.30;51.30
17659;DHT22;8948;51.534;8.262;2023-05-29T22:23:45;15.20;51.20
17659;DHT22;8948;51.534;8.262;2023-05-29T22:28:46;15.10;51.60
17659;DHT22;8948;51.534;8.262;2023-05-29T22:33:47;15.00;51.70
17659;DHT22;8948;51.534;8.262;2023-05-29T22:38:48;15.00;51.80
17659;DHT22;8948;51.534;8.262;2023-05-29T22:43:49;14.70;52.30
17659;DHT22;8948;51.534;8.262;2023-05-29T22:48:50;14.70;52.30
17659;DHT22;8948;51.534;8.262;2023-05-29T22:53:53;14.70;52.20
17659;DHT22;8948;51.534;8.262;2023-05-29T22:58:54;14.60;52.50
17659;DHT22;8948;51.534;8.262;2023-05-29T23:03:55;14.60;51.90
17659;DHT22;8948;51.534;8.262;2023-05-29T23:08:56;14.40;52.20
17659;DHT22;8948;51.534;8.262;2023-05-29T23:13:56;14.40;52.70
17659;DHT22;8948;51.534;8.262;2023-05-29T23:18:57;14.40;52.40
17659;DHT22;8948;51.534;8.262;2023-05-29T23:23:57;14.20;52.00
17659;DHT22;8948;51.534;8.262;2023-05-29T23:28:58;14.20;51.70
17659;DHT22;8948;51.534;8.262;2023-05-29T23:33:58;14.10;51.60
17659;DHT22;8948;51.534;8.262;2023-05-29T23:38:59;14.10;51.60
17659;DHT22;8948;51.534;8.262;2023-05-29T23:44:00;14.00;51.80
17659;DHT22;8948;51.534;8.262;2023-05-29T23:49:02;13.70;52.20
17659;DHT22;8948;51.534;8.262;2023-05-29T23:54:03;13.70;52.50
17659;DHT22;8948;51.534;8.262;2023-05-29T23:59:04;13.70;52.70
